Date,TemperatureHighF,TemperatureAvgF,TemperatureLowF,DewpointHighF,DewpointAvgF,DewpointLowF,HumidityHigh,HumidityAvg,HumidityLow,PressureMaxIn,PressureMinIn,WindSpeedMaxMPH,WindSpeedAvgMPH,GustSpeedMaxMPH,PrecipitationSumIn
2014-1-7,17,17,17,-10,-10,-11,29,28,27,0.00,40.00,8,8,20,0.00
2014-1-12,47,46,43,28,26,24,47,45,43,0.00,40.00,11,9,28,0.00
2014-1-13,48,45,42,38,35,31,85,68,59,0.00,40.00,8,6,17,0.00
2014-1-15,47,45,42,42,41,39,94,86,80,0.00,40.00,5,2,7,0.00
2014-1-17,43,38,30,31,29,26,94,72,50,0.00,40.00,9,5,14,0.00
2014-1-18,40,36,31,38,33,-100,97,92,83,0.00,40.00,9,5,15,0.42
2014-1-19,37,33,29,29,23,20,83,67,55,0.00,40.00,14,9,33,0.02
2014-1-20,44,39,30,30,25,13,65,56,45,0.00,40.00,11,8,24,0.00
2014-1-21,30,20,13,13,7,-1,81,59,35,0.00,40.00,14,9,27,0.00
2014-1-22,20,13,6,8,1,-8,78,59,38,0.00,40.00,17,11,31,0.00
2014-1-23,23,10,-1,-2,-6,-10,68,48,25,0.00,40.00,11,4,18,0.00
2014-1-24,21,13,6,7,-5,-8,63,45,26,0.00,40.00,13,6,24,0.00
2014-1-25,39,31,20,29,20,-100,91,65,52,0.00,40.00,19,14,40,0.00
2014-1-26,31,23,17,23,7,-7,76,53,24,0.00,40.00,10,8,24,0.00
2014-1-27,46,40,23,39,31,-6,84,71,27,0.00,40.00,18,9,24,0.00
2014-1-28,23,19,16,-5,-9,-14,35,28,19,0.00,40.00,10,5,21,0.00
2014-1-29,28,19,14,10,5,-7,83,57,33,0.00,40.00,9,5,18,0.04
2014-1-30,30,22,6,20,4,-7,71,47,29,0.00,40.00,8,5,14,0.04
2014-1-31,38,30,17,24,19,11,86,65,35,0.00,40.00,9,4,17,0.01
2014-2-1,44,36,30,34,24,-100,95,65,39,0.00,40.00,7,3,10,0.01
2014-2-2,45,41,33,40,37,32,97,87,69,0.00,40.00,8,4,15,0.00
2014-2-3,43,34,29,34,30,26,95,85,65,0.00,40.00,11,7,20,0.14
2014-2-4,43,28,22,26,22,16,93,79,46,0.00,40.00,6,4,10,0.24
2014-2-5,34,30,25,33,28,23,96,93,85,0.00,40.00,15,8,24,0.23
2014-2-6,37,26,18,24,18,14,87,71,46,0.00,40.00,9,5,23,0.15
2014-2-7,37,26,12,18,13,8,85,60,33,0.00,40.00,8,4,18,0.06
2014-2-8,34,26,17,16,9,1,72,49,27,0.00,40.00,8,4,14,0.02
2014-2-9,38,26,19,22,14,4,90,60,44,0.00,40.00,11,5,18,0.07
2014-2-10,33,26,16,24,10,2,91,55,31,0.00,40.00,9,6,21,0.02
2014-2-11,28,19,9,5,1,-2,70,47,29,0.00,40.00,9,5,20,0.02
2014-2-12,30,19,4,21,6,-5,68,57,37,0.00,40.00,9,5,15,0.00
2014-2-13,39,34,27,37,31,21,95,89,68,0.00,40.00,21,15,38,1.43
2014-2-14,44,36,32,34,27,22,95,70,43,0.00,40.00,15,9,34,0.19
2014-2-15,35,30,24,30,24,-100,97,82,58,0.00,40.00,15,9,33,0.04
2014-2-16,36,28,22,29,17,9,96,65,35,0.00,40.00,15,8,33,0.01
2014-2-17,36,21,10,13,-1,-7,65,40,18,0.00,40.00,10,6,22,0.01
2014-2-18,41,30,11,38,24,2,94,77,46,0.00,40.00,16,9,26,0.26
2014-2-19,43,34,16,42,30,13,97,88,69,0.00,40.00,9,4,16,0.33
2014-2-20,50,40,31,37,32,25,95,76,39,0.00,40.00,8,5,18,0.12
2014-2-21,50,40,35,49,38,33,98,96,92,0.00,40.00,15,7,49,0.23
2014-2-22,47,40,32,39,31,-100,98,76,53,0.00,40.00,11,5,22,0.03
2014-2-23,50,41,31,37,32,27,91,73,45,0.00,40.00,8,4,14,0.01
2014-2-24,42,36,26,34,18,2,87,52,27,0.00,40.00,11,6,24,0.01
2014-2-25,33,25,18,14,7,2,67,46,31,0.00,40.00,11,6,23,0.01
2014-2-26,34,23,14,17,8,-9,69,53,30,0.00,40.00,13,6,24,0.00
2014-2-27,32,23,9,22,5,-10,74,47,31,0.00,40.00,12,7,29,0.00
2014-2-28,27,16,9,-5,-9,-13,52,32,18,0.00,40.00,11,7,26,0.00
2014-3-1,37,28,8,29,14,-100,77,57,34,0.00,40.00,10,6,16,0.00
2014-3-2,38,35,31,28,23,13,87,62,43,0.00,40.00,7,4,12,0.00
2014-3-3,33,23,13,15,4,-4,80,45,33,0.00,40.00,11,7,20,0.00
2014-3-4,30,19,6,10,0,-7,62,43,24,0.00,40.00,9,5,16,0.00
2014-3-5,36,28,23,19,12,8,72,52,32,0.00,40.00,14,7,25,0.00
2014-3-6,31,22,14,12,4,-5,75,48,23,0.00,40.00,13,8,21,0.00
2014-3-7,37,28,14,26,18,9,85,67,53,0.00,40.00,11,7,18,0.00
2014-3-8,55,40,31,33,25,-100,79,58,29,0.00,40.00,10,7,19,0.00
2014-3-9,44,38,33,25,16,3,60,43,24,0.00,40.00,10,5,23,0.00
2014-3-10,43,35,30,34,24,3,91,66,27,0.00,40.00,9,4,19,0.01
2014-3-11,55,43,32,38,34,29,96,75,44,0.00,40.00,11,4,20,0.01
2014-3-12,50,43,34,46,38,29,98,84,62,0.00,40.00,11,6,21,0.47
2014-3-13,48,25,16,47,15,-2,98,67,40,0.00,40.00,15,10,36,0.51
2014-3-14,39,27,13,34,12,-2,86,55,37,0.00,40.00,13,7,22,0.01
2014-3-15,56,44,38,39,34,25,89,70,31,0.00,40.00,13,6,24,0.01
2014-3-16,41,34,29,27,10,-100,62,42,21,0.00,40.00,10,7,23,0.00
2014-3-17,31,26,20,5,-3,-100,50,30,20,0.00,40.00,14,8,24,0.00
2014-3-18,39,30,17,22,15,3,83,56,33,0.00,40.00,12,8,19,0.00
2014-3-19,43,34,25,36,25,19,90,71,54,0.00,40.00,13,8,22,0.00
2014-3-20,53,46,39,44,36,21,97,71,40,0.00,40.00,11,8,24,0.31
2014-3-21,50,42,31,25,20,16,64,43,27,0.00,40.00,12,8,24,0.00
2014-3-22,55,42,26,40,28,18,71,60,38,0.00,40.00,15,7,28,0.00
2014-3-23,46,36,25,27,15,-100,85,48,23,0.00,40.00,11,5,24,0.00
2014-3-24,36,32,21,3,-3,-6,44,22,17,0.00,40.00,8,5,24,0.00
2014-3-25,37,30,12,17,12,3,78,46,34,0.00,40.00,10,6,16,0.00
2014-3-26,37,32,26,24,13,-4,84,48,24,0.00,40.00,21,15,47,0.00
2014-3-27,41,31,21,28,8,-8,69,40,18,0.00,40.00,13,8,27,0.00
2014-3-28,51,43,36,43,38,28,94,83,69,0.00,40.00,12,8,26,0.11
2014-3-29,46,42,35,45,41,34,98,96,94,0.00,40.00,13,7,22,1.01
2014-3-30,54,46,38,54,45,-100,100,97,93,0.00,40.00,21,12,40,4.41
2014-3-31,41,38,36,37,34,30,97,87,69,0.00,40.00,20,11,36,0.40
2014-4-1,51,40,33,35,29,-100,83,66,46,0.00,40.00,11,6,25,0.01
2014-4-2,49,39,31,38,33,28,100,82,44,0.00,40.00,7,4,15,0.00
2014-4-3,56,40,31,36,32,25,100,78,33,0.00,40.00,9,4,15,0.00
2014-4-4,49,41,37,38,33,27,97,75,44,0.00,40.00,14,8,23,0.09
2014-4-5,56,45,39,43,37,21,99,77,36,0.00,40.00,13,8,23,0.27
2014-4-6,53,41,32,35,25,-100,80,57,32,0.00,40.00,14,6,24,0.02
2014-4-7,49,42,30,45,35,28,100,77,47,0.00,40.00,14,6,22,0.15
2014-4-8,51,47,44,49,46,35,100,96,58,0.00,40.00,14,6,22,0.66
2014-4-9,62,47,37,38,29,13,93,55,21,0.00,40.00,11,6,29,0.01
2014-4-10,50,41,26,41,28,13,90,63,30,0.00,40.00,13,7,21,0.00
2014-4-11,56,48,44,46,43,40,93,82,68,0.00,40.00,11,6,19,0.00
2014-4-12,67,53,44,46,40,26,95,67,21,0.00,40.00,12,6,23,0.00
2014-4-13,57,46,35,50,41,-100,100,88,65,0.00,40.00,10,5,19,0.00
2014-4-14,57,53,49,52,50,48,98,90,77,0.00,40.00,13,9,24,0.00
2014-4-15,57,52,42,55,52,41,100,98,85,0.00,40.00,27,16,43,0.47
2014-4-16,49,40,32,41,24,16,100,59,28,0.00,40.00,16,9,28,1.44
2014-4-17,47,38,32,28,23,16,74,54,41,0.00,40.00,17,11,26,0.04
2014-4-18,44,37,32,37,31,27,90,81,72,0.00,40.00,10,6,17,0.00
2014-4-19,66,47,34,39,34,24,100,68,21,0.00,40.00,11,4,28,0.00
2014-4-20,51,44,31,37,29,-100,98,59,35,0.00,40.00,12,6,21,0.00
2014-4-21,54,42,28,44,38,28,100,85,67,0.00,40.00,8,4,12,0.00
2014-4-22,55,48,38,48,44,38,100,88,71,0.00,40.00,10,6,16,0.02
2014-4-23,57,50,43,51,43,31,100,81,47,0.00,40.00,15,6,29,0.13
2014-4-24,61,50,42,31,21,12,52,33,18,0.00,40.00,17,11,36,0.03
2014-4-25,57,48,40,41,30,21,90,53,31,0.00,40.00,10,6,22,0.00
2014-4-26,49,46,42,45,43,40,96,89,77,0.00,40.00,10,6,16,0.23
2014-4-28,47,46,44,39,38,37,76,75,73,0.00,40.00,8,6,15,0.00
2014-4-29,49,46,42,40,37,35,87,72,59,0.00,40.00,16,13,26,0.00
2014-4-30,46,43,41,46,40,36,100,88,76,0.00,40.00,15,12,24,1.06
2014-5-1,54,50,46,54,50,46,100,100,96,0.00,40.00,16,8,29,1.85
2014-5-2,63,55,47,55,46,40,100,73,43,0.00,40.00,11,6,21,0.01
2014-5-3,61,51,37,49,43,37,100,76,53,0.00,40.00,9,5,17,0.01
2014-5-4,64,55,47,50,41,-100,94,62,39,0.00,40.00,16,9,32,0.00
2014-5-5,65,56,46,42,39,35,73,53,36,0.00,40.00,11,7,25,0.00
2014-5-6,65,52,38,41,36,28,96,58,25,0.00,40.00,13,5,26,0.00
2014-5-7,45,45,45,32,32,32,61,61,61,0.00,40.00,4,4,5,0.00
2014-5-13,55,51,47,45,40,39,80,65,60,0.00,40.00,11,8,17,0.00
2014-5-14,61,53,46,55,48,41,98,83,68,0.00,40.00,10,5,15,0.00
2014-5-15,67,60,55,61,58,54,99,92,77,0.00,40.00,9,5,13,0.02
2014-5-16,63,59,56,59,58,56,100,96,86,0.00,40.00,14,8,20,0.02
2014-5-17,67,59,49,59,54,48,100,85,51,0.00,40.00,15,9,22,0.66
2014-5-18,68,58,47,47,39,-100,99,53,34,0.00,40.00,13,6,23,0.08
2014-5-19,69,58,51,42,29,-100,71,38,22,0.00,40.00,10,7,22,0.00
2014-5-20,77,60,47,49,41,-100,97,56,22,0.00,40.00,14,6,29,0.00
2014-5-21,69,56,42,54,49,42,100,80,48,0.00,40.00,8,4,14,0.00
2014-5-22,59,55,52,56,51,-100,97,91,75,0.00,40.00,10,4,22,0.36
2014-5-23,66,58,53,55,52,49,95,83,64,0.00,40.00,10,6,16,0.11
2014-5-24,68,59,53,53,50,46,96,72,46,0.00,40.00,13,7,23,0.03
2014-5-25,63,54,46,58,51,-100,100,93,75,0.00,40.00,9,4,14,0.12
2014-5-26,69,60,46,59,54,46,100,83,59,0.00,40.00,10,4,18,0.01
2014-5-27,77,64,53,62,57,53,99,81,54,0.00,40.00,13,6,23,0.02
2014-5-28,55,52,49,54,49,43,99,89,79,0.00,40.00,16,12,33,0.02
2014-5-29,64,52,43,49,44,41,96,74,49,0.00,40.00,10,7,20,0.00
2014-5-30,60,50,39,50,45,38,99,83,60,0.00,40.00,9,4,13,0.03
2014-5-31,67,58,49,53,45,26,99,68,22,0.00,40.00,18,9,27,0.03
2014-6-1,77,59,41,50,39,-100,90,53,27,0.00,40.00,12,6,18,0.00
2014-6-2,68,64,58,56,53,50,85,69,53,0.00,40.00,10,8,16,0.00
2014-6-3,68,60,49,60,54,48,99,83,70,0.00,40.00,10,5,15,0.00
2014-6-4,67,60,58,59,55,49,100,85,69,0.00,40.00,9,6,15,0.00
2014-6-5,63,60,54,62,60,54,100,98,94,0.00,40.00,13,5,23,0.71
2014-6-6,76,64,53,59,54,51,100,74,43,0.00,40.00,10,5,19,0.01
2014-6-7,77,64,54,60,56,53,98,77,50,0.00,40.00,10,6,15,0.00
2014-6-8,81,67,54,62,56,-100,98,72,44,0.00,40.00,9,4,12,0.00
2014-6-9,69,62,53,64,60,52,99,93,78,0.00,40.00,7,3,11,0.40
2014-6-10,68,65,62,66,64,61,99,96,91,0.00,40.00,12,4,21,0.29
2014-6-11,71,64,60,62,55,50,92,73,52,0.00,40.00,16,11,25,0.01
2014-6-12,67,62,59,60,57,52,91,84,79,0.00,40.00,11,8,19,0.00
2014-6-13,69,64,61,68,63,58,100,98,90,0.00,40.00,11,6,19,0.93
2014-6-14,78,68,60,67,62,48,100,84,56,0.00,40.00,8,4,16,0.03
2014-6-15,80,66,55,57,51,-100,87,65,42,0.00,40.00,10,6,21,0.00
2014-6-16,76,64,55,59,54,50,93,71,43,0.00,40.00,9,5,16,0.00
2014-6-17,70,64,59,65,62,58,100,92,79,0.00,40.00,8,5,15,0.00
2014-6-18,86,75,62,70,64,61,100,73,47,0.00,40.00,10,5,24,0.00
2014-6-19,73,69,62,68,64,60,99,86,70,0.00,40.00,8,4,16,0.20
2014-6-20,79,66,52,60,50,42,99,61,32,0.00,40.00,9,5,17,0.02
2014-6-21,69,62,49,56,50,43,92,65,43,0.00,40.00,10,5,15,0.00
2014-6-22,76,62,52,57,50,-100,96,69,37,0.00,40.00,9,4,13,0.00
2014-6-23,71,62,51,62,56,50,99,83,61,0.00,40.00,8,4,12,0.00
2014-6-24,72,65,54,64,61,53,98,86,72,0.00,40.00,14,6,18,0.00
2014-6-25,72,69,63,69,67,62,98,93,85,0.00,40.00,8,6,14,0.00
2014-6-26,79,70,64,73,68,59,99,95,75,0.00,40.00,10,7,18,0.82
2014-6-27,78,68,57,59,55,45,98,67,31,0.00,40.00,12,7,20,0.01
2014-6-28,73,66,55,62,58,52,96,77,62,0.00,40.00,9,4,12,0.00
2014-6-29,72,64,53,67,58,-100,98,87,72,0.00,40.00,9,5,16,0.00
2014-6-30,74,68,63,69,66,62,98,91,80,0.00,40.00,11,6,17,0.00
2014-7-1,75,70,66,71,68,65,98,93,86,0.00,40.00,11,6,17,0.00
2014-7-2,76,72,68,71,69,67,98,92,83,0.00,40.00,14,7,18,0.00
2014-7-3,81,73,70,74,71,69,99,93,75,0.00,40.00,8,5,17,0.04
2014-7-4,73,69,63,72,67,61,98,96,93,0.00,40.00,20,9,38,3.38
2014-7-5,80,70,60,64,53,47,95,59,33,0.00,40.00,12,7,27,0.34
2014-7-6,78,68,56,63,56,-100,94,71,56,0.00,40.00,10,6,21,0.00
2014-7-7,74,70,65,68,66,63,92,86,81,0.00,40.00,11,7,20,0.00
2014-7-8,77,71,67,70,68,65,95,88,79,0.00,40.00,11,7,19,0.00
2014-7-9,78,71,67,70,67,64,97,86,77,0.00,40.00,11,7,21,0.00
2014-7-10,79,72,64,68,65,62,98,82,59,0.00,40.00,6,3,18,0.14
2014-7-11,80,69,61,67,63,60,98,81,58,0.00,40.00,8,4,14,0.00
2014-7-12,77,68,58,66,63,57,99,85,63,0.00,40.00,9,5,16,0.00
2014-7-13,75,68,65,70,66,64,99,91,84,0.00,40.00,9,6,18,0.00
2014-7-14,76,70,68,72,69,67,99,95,84,0.00,40.00,8,6,18,0.04
2014-7-15,73,70,69,72,70,69,100,99,96,0.00,40.00,10,7,17,0.05
2014-7-16,71,69,65,71,69,65,100,100,100,0.00,40.00,6,3,17,1.67
2014-7-17,76,69,62,66,63,58,100,82,60,0.00,40.00,6,3,12,0.01
2014-7-18,76,67,58,65,60,56,99,81,62,0.00,40.00,7,4,11,0.00
2014-7-19,75,66,57,68,60,55,99,83,60,0.00,40.00,8,3,15,0.00
2014-7-20,72,64,63,63,58,59,89,80,70,0.00,40.00,8,5,13,0.01
2014-7-21,81,69,62,65,63,60,97,82,58,0.00,40.00,8,6,15,0.05
2014-7-22,80,70,59,70,65,59,99,85,67,0.00,40.00,8,4,17,0.00
2014-7-23,77,72,68,71,69,65,96,88,80,0.00,40.00,10,6,18,0.00
2014-7-24,81,73,67,71,68,64,98,84,65,0.00,40.00,11,5,19,0.00
2014-7-25,79,70,61,65,61,55,98,75,47,0.00,40.00,9,5,12,0.00
2014-7-26,76,69,57,70,64,56,98,87,73,0.00,40.00,10,5,16,0.00
2014-7-27,74,70,67,71,67,65,98,89,84,0.00,40.00,15,6,19,0.28
2014-7-28,78,73,69,72,69,62,98,87,75,0.00,40.00,10,7,21,0.02
2014-7-29,76,69,61,63,60,58,93,75,56,0.00,40.00,9,4,18,0.02
2014-7-30,76,66,56,62,59,55,98,80,59,0.00,40.00,8,5,15,0.00
2014-7-31,76,64,54,68,59,53,98,89,70,0.00,40.00,11,3,15,0.00
2014-8-1,77,70,62,71,67,61,98,90,79,0.00,40.00,8,3,13,0.00
2014-8-2,69,66,61,68,64,59,98,94,76,0.00,40.00,9,4,18,0.82
2014-8-3,73,67,62,67,64,61,97,91,81,0.00,40.00,7,4,13,0.02
2014-8-4,77,71,65,70,67,64,98,89,79,0.00,40.00,10,5,17,0.01
2014-8-5,80,72,66,72,69,65,98,90,77,0.00,40.00,8,5,12,0.01
2014-8-6,82,71,62,68,65,61,98,84,55,0.00,40.00,9,3,20,0.00
2014-8-7,80,72,58,64,60,56,95,66,45,0.00,40.00,9,6,25,0.00
2014-8-8,83,67,54,62,57,53,96,74,43,0.00,40.00,8,4,16,0.00
2014-8-9,83,70,60,67,61,55,95,75,46,0.00,40.00,9,5,11,0.00
2014-8-10,84,68,60,65,60,59,97,77,47,0.00,40.00,7,3,12,0.00
2014-8-11,78,69,58,67,63,57,97,84,61,0.00,40.00,8,3,11,0.00
2014-8-12,78,65,58,69,62,57,97,92,74,0.00,40.00,9,4,16,0.00
2014-8-13,74,71,68,70,68,66,95,91,88,0.00,40.00,13,8,23,0.36
2014-8-14,77,68,58,64,58,51,94,72,40,0.00,40.00,10,5,21,0.05
2014-8-15,74,68,56,65,55,52,95,66,47,0.00,40.00,11,5,21,5.50
2014-8-16,75,68,53,62,59,52,96,75,63,0.00,40.00,9,5,15,5.50
2014-8-17,77,69,63,64,62,61,95,81,65,0.00,40.00,8,3,17,0.00
2014-8-18,75,66,55,62,56,53,96,75,49,0.00,40.00,8,4,15,0.00
2014-8-19,76,65,50,59,55,49,95,74,45,0.00,40.00,7,3,11,0.00
2014-8-20,76,66,54,67,60,53,97,83,66,0.00,40.00,7,4,11,0.00
2014-8-21,77,67,54,66,61,53,97,82,62,0.00,40.00,6,4,11,0.00
2014-8-22,75,68,64,65,62,59,95,82,67,0.00,40.00,8,5,16,0.01
2014-8-23,75,68,58,61,58,52,91,73,53,0.00,40.00,10,7,20,0.01
2014-8-24,76,63,54,60,53,52,96,73,49,0.00,40.00,12,6,17,0.00
2014-8-25,79,68,55,66,62,54,96,80,64,0.00,40.00,7,4,10,0.00
2014-8-26,77,70,55,66,63,54,96,80,65,0.00,40.00,9,4,11,0.00
2014-8-27,78,70,58,69,65,57,96,85,68,0.00,40.00,9,4,16,0.00
2014-8-28,82,72,61,66,59,52,95,67,42,0.00,40.00,11,6,23,0.00
2014-8-29,75,65,56,58,54,48,80,66,44,0.00,40.00,10,6,18,0.00
2014-8-30,74,67,52,64,60,51,95,78,65,0.00,40.00,11,6,15,0.00
2014-8-31,76,70,69,71,67,65,96,88,79,0.00,40.00,9,6,17,1.74
2014-9-1,80,74,71,73,71,69,97,89,77,0.00,40.00,8,4,13,1.74
2014-9-2,83,74,70,74,71,69,97,91,75,0.00,40.00,8,4,14,0.00
2014-9-3,84,75,59,70,63,58,95,68,43,0.00,40.00,9,5,21,0.00
2014-9-4,82,70,57,69,62,56,96,78,50,0.00,40.00,7,4,14,0.00
2014-9-5,79,72,62,73,70,61,97,92,79,0.00,40.00,9,5,16,0.00
2014-9-6,81,74,71,74,72,69,97,92,78,0.00,40.00,9,5,21,0.00
2014-9-7,80,70,61,69,61,59,95,76,50,0.00,40.00,7,4,19,0.01
2014-9-8,76,65,56,61,56,52,97,76,54,0.00,40.00,11,6,19,0.00
2014-9-9,72,66,59,60,57,52,91,74,64,0.00,40.00,11,7,19,0.00
2014-9-10,75,67,61,64,60,59,95,80,61,0.00,40.00,10,6,17,0.00
2014-9-11,77,70,64,69,64,58,96,82,72,0.00,40.00,12,6,17,0.00
2014-9-12,77,66,55,69,55,52,96,71,44,0.00,40.00,10,5,17,0.00
2014-9-13,71,61,52,59,54,47,95,78,58,0.00,40.00,11,6,20,0.27
2014-9-14,70,58,50,57,51,48,96,77,51,0.00,40.00,9,4,19,0.27
2014-9-15,68,57,47,54,48,43,95,75,51,0.00,40.00,8,5,14,0.01
2014-9-16,69,55,47,60,51,46,96,88,54,0.00,40.00,6,3,11,0.00
2014-9-17,71,60,47,52,49,46,96,69,41,0.00,40.00,9,4,14,0.00
2014-9-18,76,62,47,55,49,45,95,66,37,0.00,40.00,7,4,12,0.00
2014-9-19,63,56,51,50,43,38,72,62,40,0.00,40.00,11,7,20,0.00
2014-9-20,72,62,44,60,53,42,94,74,57,0.00,40.00,9,6,14,0.00
2014-9-21,75,67,65,69,64,64,96,85,81,0.00,40.00,7,3,14,0.00
2014-9-22,75,66,54,67,50,39,97,65,40,0.00,40.00,10,5,20,0.00
2014-9-23,67,52,39,50,43,37,95,75,45,0.00,40.00,9,4,15,0.00
2014-9-24,70,60,51,57,52,48,91,74,59,0.00,40.00,13,7,22,0.00
2014-9-25,62,59,57,58,55,52,94,87,77,0.00,40.00,10,7,18,0.33
2014-9-26,76,63,51,57,52,37,96,72,24,0.00,40.00,11,8,20,0.22
2014-9-27,79,63,49,61,55,48,96,78,51,0.00,40.00,8,3,9,0.00
2014-9-28,78,67,52,66,61,51,96,81,64,0.00,40.00,8,4,12,0.00
2014-9-29,70,65,55,66,62,54,97,92,84,0.00,40.00,8,2,13,0.00
2014-9-30,63,59,57,61,57,54,94,92,88,0.00,40.00,9,7,19,0.03
2014-10-1,62,58,57,59,57,55,95,94,90,0.00,40.00,10,8,22,1.70
2014-10-2,60,58,49,57,55,47,95,91,80,0.00,40.00,11,8,23,0.37
2014-10-3,61,55,48,53,50,46,94,84,70,0.00,40.00,8,6,17,0.01
2014-10-4,67,60,55,65,58,53,96,93,84,0.00,40.00,14,6,22,0.10
2014-10-5,61,54,41,58,44,39,95,71,49,0.00,40.00,9,5,20,0.02
2014-10-6,67,59,38,55,47,36,95,67,46,0.00,40.00,12,6,18,0.00
2014-10-7,71,65,53,62,60,52,96,84,73,0.00,40.00,13,7,20,0.00
2014-10-8,71,66,58,65,59,49,96,78,56,0.00,40.00,17,9,27,0.14
2014-10-9,67,59,42,53,44,37,95,59,36,0.00,40.00,12,6,26,0.12
2014-10-10,65,56,41,48,43,38,90,64,41,0.00,40.00,9,4,16,0.00
2014-10-11,54,50,41,49,46,40,96,87,68,0.00,40.00,9,5,14,0.43
2014-10-12,64,50,42,45,41,38,96,73,38,0.00,40.00,9,6,18,0.01
2014-10-13,65,57,37,57,50,36,96,77,60,0.00,40.00,12,7,17,0.00
2014-10-14,73,66,62,64,62,57,95,87,73,0.00,40.00,10,6,14,0.00
2014-10-15,73,69,65,67,65,63,93,87,77,0.00,40.00,13,8,18,0.00
2014-10-16,69,67,62,67,65,61,96,94,91,0.00,40.00,12,8,20,0.71
2014-10-17,71,64,59,62,59,56,95,82,62,0.00,40.00,11,7,20,0.01
2014-10-18,71,64,57,62,58,49,91,81,68,0.00,40.00,12,7,21,0.01
2014-10-19,59,52,39,49,38,27,79,60,45,0.00,40.00,12,6,26,0.00
2014-10-20,60,48,30,49,35,27,91,62,44,0.00,40.00,9,6,22,0.00
2014-10-21,68,60,52,59,54,48,95,81,66,0.00,40.00,10,6,18,0.00
2014-10-22,58,55,52,55,52,49,94,89,80,0.00,40.00,23,16,43,0.62
2014-10-23,58,54,51,52,50,48,91,85,75,0.00,40.00,22,18,39,0.71
2014-10-24,56,53,50,48,46,41,90,78,68,0.00,40.00,15,7,27,0.02
2014-10-25,64,54,40,52,45,38,94,72,48,0.00,40.00,12,5,19,0.01
2014-10-26,62,55,49,52,41,36,89,61,41,0.00,40.00,11,6,30,0.00
2014-10-27,65,54,44,43,40,36,79,60,38,0.00,40.00,8,4,19,0.00
2014-10-28,68,57,37,59,52,35,95,85,67,0.00,40.00,9,6,16,0.00
2014-10-29,70,63,52,62,58,47,95,85,65,0.00,40.00,9,5,18,0.03
2014-10-30,64,51,41,50,40,34,92,68,37,0.00,40.00,8,4,16,0.04
2014-10-31,55,48,40,45,40,34,89,75,64,0.00,40.00,12,9,27,0.00
2014-11-1,50,46,42,45,40,37,91,78,63,0.00,40.00,20,16,36,0.11
2014-11-2,46,41,38,37,28,12,86,62,33,0.00,40.00,23,15,46,0.14
2014-11-3,56,44,31,36,23,12,62,45,27,0.00,40.00,10,5,28,0.01
2014-11-4,63,55,43,52,38,25,79,57,25,0.00,40.00,9,4,18,0.00
2014-11-5,64,58,45,54,48,42,89,71,49,0.00,40.00,10,6,20,0.00
2014-11-6,53,49,45,51,46,39,96,89,73,0.00,40.00,9,3,20,0.49
2014-11-7,52,47,37,49,38,29,96,74,48,0.00,40.00,11,6,25,0.02
2014-11-8,49,41,30,38,28,23,78,60,39,0.00,40.00,11,6,21,0.00
2014-11-9,58,50,40,43,38,33,87,64,48,0.00,40.00,10,6,23,0.00
2014-11-10,60,46,31,42,35,29,94,68,41,0.00,40.00,7,4,12,0.00
2014-11-11,61,53,36,55,50,34,97,89,76,0.00,40.00,7,4,12,0.00
2014-11-12,62,53,47,57,50,32,98,89,56,0.00,40.00,13,4,24,0.00
2014-11-13,52,44,32,39,30,25,88,58,39,0.00,40.00,11,5,20,0.00
2014-11-14,46,36,27,37,28,19,95,73,40,0.00,40.00,10,6,21,0.26
2014-11-15,42,31,24,21,17,13,75,56,34,0.00,40.00,8,4,20,0.02
2014-11-16,46,34,22,33,25,14,83,67,53,0.00,40.00,5,3,10,0.00
2014-11-17,58,47,40,57,45,33,97,93,72,0.00,40.00,11,6,20,1.34
2014-11-18,52,38,27,51,21,2,95,54,25,0.00,40.00,13,7,25,0.19
2014-11-19,38,30,21,26,10,2,61,44,29,0.00,40.00,12,8,25,0.00
2014-11-20,50,42,35,28,24,12,60,49,36,0.00,40.00,13,8,31,0.00
2014-11-21,37,30,24,19,11,6,72,46,30,0.00,40.00,13,6,27,0.00
2014-11-22,45,33,16,31,18,7,76,54,36,0.00,40.00,13,7,29,0.00
2014-11-23,56,47,38,41,33,28,93,60,40,0.00,40.00,12,7,26,0.00
2014-11-24,59,55,40,58,54,38,97,95,93,0.00,40.00,24,11,36,0.49
2014-11-25,61,53,44,58,43,34,98,70,48,0.00,40.00,8,4,17,0.01
2014-11-26,46,41,35,38,35,31,92,80,56,0.00,40.00,22,10,44,1.32
2014-11-27,42,36,30,34,32,28,93,85,66,0.00,40.00,16,5,33,0.26
2014-11-28,39,32,25,29,22,13,90,68,45,0.00,40.00,13,7,23,0.01
2014-11-29,43,30,19,33,18,13,78,60,39,0.00,40.00,9,4,16,0.00
2014-11-30,57,51,43,47,43,33,84,72,60,0.00,40.00,16,9,23,0.00
2014-12-1,58,52,40,50,45,33,88,76,54,0.00,40.00,9,6,27,0.03
2014-12-2,43,38,36,40,28,21,90,68,55,0.00,40.00,16,10,27,0.06
2014-12-3,51,47,42,49,45,34,97,92,71,0.00,40.00,13,8,24,0.23
2014-12-4,46,38,29,34,23,16,87,58,30,0.00,40.00,9,4,19,0.06
2014-12-5,44,38,29,42,27,16,92,65,52,0.00,40.00,15,10,24,0.17
2014-12-6,51,46,41,50,45,39,96,93,91,0.00,40.00,13,7,27,1.42
2014-12-7,41,35,25,39,22,4,92,61,38,0.00,40.00,17,14,31,0.94
2014-12-8,30,27,23,27,17,5,90,66,42,0.00,40.00,15,12,28,0.03
2014-12-9,53,43,30,52,41,27,96,94,90,0.00,40.00,21,14,41,2.10
2014-12-10,42,38,36,41,37,34,96,91,93,0.00,40.00,7,3,15,0.04
2014-12-11,37,33,30,34,27,24,94,78,68,0.00,40.00,8,5,18,0.01
2014-12-12,39,32,24,25,24,22,91,73,58,0.00,40.00,9,4,17,0.00
2014-12-13,43,35,30,26,25,23,80,66,50,0.00,40.00,10,6,22,0.00
2014-12-14,48,35,26,30,27,24,92,71,49,0.00,40.00,9,4,19,0.00
2014-12-15,43,32,23,32,27,21,93,82,62,0.00,40.00,7,2,11,0.00
2014-12-16,45,39,27,43,36,25,94,87,80,0.00,40.00,7,4,11,0.00
2014-12-17,51,46,41,45,41,30,95,83,64,0.00,40.00,10,6,26,0.31
2014-12-18,44,39,31,31,28,24,79,65,51,0.00,40.00,12,6,26,0.01
2014-12-19,41,35,28,26,23,20,79,62,48,0.00,40.00,10,5,19,0.00
2014-12-20,36,28,24,30,21,19,87,72,64,0.00,40.00,12,6,18,0.00
2014-12-21,38,35,33,34,32,30,91,87,82,0.00,40.00,13,9,21,0.00
2014-12-22,47,40,33,40,35,30,87,82,73,0.00,40.00,12,10,19,0.00
2014-12-23,48,46,43,47,44,39,95,93,83,0.00,40.00,14,10,22,0.11
2014-12-24,57,49,45,56,48,44,98,96,95,0.00,40.00,18,9,26,0.76
2014-12-25,57,51,42,56,43,29,99,78,47,0.00,40.00,11,6,25,0.53
2014-12-26,52,40,32,35,30,28,88,69,44,0.00,40.00,8,3,18,0.07
2014-12-27,54,40,29,38,33,27,95,78,46,0.00,40.00,8,3,14,0.00
2014-12-28,50,46,34,44,40,28,96,81,61,0.00,40.00,9,6,18,0.02
2014-12-29,43,37,28,28,22,15,83,56,42,0.00,40.00,7,4,15,0.01
2014-12-30,31,26,19,16,10,3,64,52,31,0.00,40.00,6,4,17,0.00
2014-12-31,33,25,14,17,8,5,71,48,30,0.00,40.00,9,4,18,0.00
2015-1-1,40,31,19,21,10,2,59,41,31,0.00,40.00,13,9,29,0.00
2015-1-2,44,37,29,21,18,16,63,46,35,0.00,40.00,10,6,25,0.00